createdAt,value
2023-03-18T02:56:46.534Z,10.23
2023-03-18T02:59:13.749Z,9.23
2023-03-18T03:01:43.640Z,10.38
2023-03-18T06:15:02.691Z,13.50
2023-03-18T08:12:53.264Z,12.13
2023-03-18T09:33:54.286Z,7.30
2023-03-18T09:36:54.564Z,15.20
2023-03-18T12:50:38.054Z,7.93
2023-03-18T12:53:50.180Z,7.35
2023-03-18T12:56:21.517Z,7.87
2023-03-18T12:58:55.989Z,9.25
2023-03-18T13:01:33.295Z,9.98
2023-03-18T15:58:38.520Z,4.62
2023-03-18T16:01:07.977Z,6.20
2023-03-18T17:14:59.030Z,8.80
2023-03-18T17:17:33.009Z,11.35
2023-03-18T17:20:02.619Z,14.13
2023-03-18T17:27:57.594Z,11.12
2023-03-18T17:30:33.747Z,11.70
2023-03-18T17:33:02.330Z,12.20
2023-03-18T17:35:29.785Z,10.57
2023-03-18T17:37:56.804Z,14.68
2023-03-18T17:40:27.917Z,10.25
2023-03-18T18:02:33.994Z,13.10
2023-03-18T18:05:00.682Z,12.73
2023-03-18T18:37:32.082Z,13.30
2023-03-18T18:40:26.792Z,15.68
2023-03-18T18:43:00.864Z,12.43
2023-03-18T18:45:30.368Z,13.23
2023-03-18T18:47:57.542Z,12.48
2023-03-18T19:20:27.976Z,9.38
2023-03-18T19:40:52.997Z,13.52
2023-03-18T19:43:21.766Z,16.15
2023-03-18T19:45:50.582Z,15.52
2023-03-18T19:48:21.342Z,15.07
2023-03-18T19:50:51.039Z,14.73
2023-03-18T19:55:56.010Z,16.08
2023-03-18T20:26:49.013Z,26.80
2023-03-18T20:43:57.198Z,18.45
2023-03-18T21:50:30.023Z,16.15
2023-03-18T21:52:57.115Z,15.02
2023-03-18T21:55:23.725Z,16.60
2023-03-18T21:57:50.470Z,17.05
2023-03-18T22:00:22.389Z,15.60
2023-03-18T22:11:17.893Z,17.67
2023-03-18T22:13:45.483Z,18.30
2023-03-18T22:16:17.363Z,17.92
2023-03-18T22:18:45.134Z,16.37
2023-03-18T22:21:17.631Z,17.55
2023-03-18T22:23:44.518Z,18.77
2023-03-18T22:26:16.525Z,15.80
2023-03-18T22:28:43.674Z,16.17
2023-03-18T22:31:19.380Z,16.30
2023-03-18T22:33:46.631Z,14.20
2023-03-18T22:36:17.593Z,17.05
2023-03-18T22:38:44.547Z,17.92
2023-03-18T22:41:21.122Z,16.95
2023-03-18T22:44:06.455Z,19.37
2023-03-18T22:46:33.071Z,15.43
2023-03-18T22:49:05.290Z,17.75
2023-03-18T22:51:36.372Z,19.03
2023-03-18T22:54:03.176Z,18.73
2023-03-18T22:56:32.163Z,19.27
2023-03-18T22:58:58.818Z,18.10
2023-03-18T23:01:29.840Z,18.48
2023-03-18T23:03:56.448Z,16.45
2023-03-18T23:06:27.223Z,16.87
2023-03-18T23:08:53.985Z,20.25
2023-03-18T23:11:20.782Z,19.12
2023-03-18T23:13:50.049Z,22.20
2023-03-18T23:16:20.489Z,22.40
2023-03-18T23:18:47.417Z,24.12
2023-03-18T23:21:22.173Z,23.90
2023-03-18T23:23:49.301Z,22.25
2023-03-18T23:26:16.813Z,22.65
2023-03-18T23:28:45.125Z,22.25
2023-03-18T23:31:13.387Z,21.85
2023-03-18T23:33:40.192Z,21.73
2023-03-18T23:36:07.531Z,22.05
2023-03-18T23:38:34.237Z,22.65
2023-03-18T23:41:00.991Z,20.83
2023-03-18T23:43:27.590Z,20.05
2023-03-18T23:45:59.554Z,21.27
2023-03-18T23:48:26.221Z,24.23
2023-03-18T23:50:55.278Z,20.08
2023-03-18T23:53:22.083Z,18.70
2023-03-18T23:55:49.372Z,18.30
2023-03-18T23:58:16.609Z,21.00
